createdAt,value
2018-02-18T00:00:00.079Z,1000.92
2018-02-18T00:01:53.454Z,1000.95
2018-02-18T00:02:53.398Z,1000.95
2018-02-18T00:04:46.743Z,1000.96
2018-02-18T00:05:46.704Z,1000.99
2018-02-18T00:07:40.076Z,1001.01
2018-02-18T00:08:40.016Z,1001.01
2018-02-18T00:10:33.371Z,1001.06
2018-02-18T00:11:33.332Z,1001.09
2018-02-18T00:13:26.684Z,1001.07
2018-02-18T00:14:26.642Z,1001.09
2018-02-18T00:16:19.997Z,1001.16
2018-02-18T00:17:19.953Z,1001.16
2018-02-18T00:19:15.827Z,1001.18
2018-02-18T00:20:15.764Z,1001.19
2018-02-18T00:22:09.126Z,1001.19
2018-02-18T00:23:09.079Z,1001.20
2018-02-18T00:25:02.441Z,1001.20
2018-02-18T00:26:02.386Z,1001.19
2018-02-18T00:27:55.727Z,1001.22
2018-02-18T00:28:55.688Z,1001.27
2018-02-18T00:30:49.039Z,1001.32
2018-02-18T00:31:48.997Z,1001.32
2018-02-18T00:33:42.405Z,1001.36
2018-02-18T00:34:42.308Z,1001.33
2018-02-18T00:36:35.679Z,1001.36
2018-02-18T00:37:35.619Z,1001.37
2018-02-18T00:39:28.981Z,1001.34
2018-02-18T00:40:28.930Z,1001.34
2018-02-18T00:42:22.304Z,1001.35
2018-02-18T00:43:22.248Z,1001.34
2018-02-18T00:45:18.103Z,1001.33
2018-02-18T00:46:18.053Z,1001.32
2018-02-18T00:48:11.451Z,1001.37
2018-02-18T00:49:11.440Z,1001.35
2018-02-18T00:51:07.262Z,1001.36
2018-02-18T00:52:07.196Z,1001.37
2018-02-18T00:54:03.046Z,1001.34
2018-02-18T00:55:03.006Z,1001.38
2018-02-18T00:56:56.374Z,1001.39
2018-02-18T00:57:56.315Z,1001.41
2018-02-18T00:59:52.198Z,1001.38
2018-02-18T01:00:52.133Z,1001.40
2018-02-18T01:02:47.995Z,1001.37
2018-02-18T01:03:47.954Z,1001.39
2018-02-18T01:05:43.829Z,1001.47
2018-02-18T01:06:43.769Z,1001.46
2018-02-18T01:08:39.629Z,1001.47
2018-02-18T01:09:39.591Z,1001.52
2018-02-18T01:11:35.506Z,1001.54
2018-02-18T01:12:35.405Z,1001.54
2018-02-18T01:14:31.270Z,1001.54
2018-02-18T01:15:31.230Z,1001.52
2018-02-18T01:17:24.580Z,1001.56
2018-02-18T01:18:24.537Z,1001.58
2018-02-18T01:20:17.898Z,1001.63
2018-02-18T01:21:17.843Z,1001.62
2018-02-18T01:23:11.195Z,1001.64
2018-02-18T01:24:11.155Z,1001.64
2018-02-18T01:26:07.014Z,1001.67
2018-02-18T01:27:06.962Z,1001.67
2018-02-18T01:29:02.823Z,1001.68
2018-02-18T01:30:02.780Z,1001.65
2018-02-18T01:31:58.659Z,1001.68
2018-02-18T01:32:58.596Z,1001.72
2018-02-18T01:34:54.466Z,1001.68
2018-02-18T01:35:54.407Z,1001.70
2018-02-18T01:37:47.773Z,1001.69
2018-02-18T01:38:47.715Z,1001.71
2018-02-18T01:40:41.077Z,1001.73
2018-02-18T01:41:41.035Z,1001.70
2018-02-18T01:43:33.916Z,1001.73
2018-02-18T01:44:33.853Z,1001.73
2018-02-18T01:45:33.825Z,1001.74
2018-02-18T01:46:33.800Z,1001.74
2018-02-18T01:47:33.771Z,1001.71
2018-02-18T01:48:33.748Z,1001.74
2018-02-18T01:49:33.721Z,1001.74
2018-02-18T01:50:33.701Z,1001.72
2018-02-18T01:51:33.680Z,1001.70
2018-02-18T01:52:33.643Z,1001.78
2018-02-18T01:53:33.621Z,1001.76
2018-02-18T01:54:33.629Z,1001.76
2018-02-18T01:55:33.569Z,1001.75
2018-02-18T01:56:33.549Z,1001.78
2018-02-18T01:57:33.520Z,1001.75
2018-02-18T01:58:33.488Z,1001.73
2018-02-18T01:59:33.472Z,1001.70
2018-02-18T02:00:33.434Z,1001.72
2018-02-18T02:01:33.405Z,1001.69
2018-02-18T02:02:33.391Z,1001.74
2018-02-18T02:03:33.354Z,1001.75
2018-02-18T02:04:33.332Z,1001.72
2018-02-18T02:05:33.301Z,1001.72
2018-02-18T02:06:33.274Z,1001.74
2018-02-18T02:07:33.270Z,1001.75
2018-02-18T02:08:33.232Z,1001.72
2018-02-18T02:09:33.195Z,1001.72
2018-02-18T02:10:33.173Z,1001.73
2018-02-18T02:11:33.151Z,1001.76
2018-02-18T02:12:33.116Z,1001.74
2018-02-18T02:13:33.094Z,1001.73
2018-02-18T02:14:33.074Z,1001.74
2018-02-18T02:15:33.045Z,1001.77
2018-02-18T02:16:33.012Z,1001.76
2018-02-18T02:17:32.989Z,1001.76
2018-02-18T02:18:32.961Z,1001.79
2018-02-18T02:19:32.948Z,1001.81
2018-02-18T02:20:32.908Z,1001.80
2018-02-18T02:21:32.885Z,1001.81
2018-02-18T02:22:32.862Z,1001.81
2018-02-18T02:23:32.830Z,1001.81
2018-02-18T02:24:32.810Z,1001.82
2018-02-18T02:25:32.788Z,1001.79
2018-02-18T02:26:32.752Z,1001.82
2018-02-18T02:27:32.725Z,1001.82
2018-02-18T02:28:32.736Z,1001.85
2018-02-18T02:29:32.671Z,1001.86
2018-02-18T02:30:32.648Z,1001.88
2018-02-18T02:31:32.629Z,1001.87
2018-02-18T02:32:32.597Z,1001.84
2018-02-18T02:33:32.573Z,1001.86
2018-02-18T02:34:32.547Z,1001.86
2018-02-18T02:35:32.517Z,1001.83
2018-02-18T02:36:32.491Z,1001.86
2018-02-18T02:37:32.464Z,1001.88
2018-02-18T02:38:32.439Z,1001.90
2018-02-18T02:39:32.413Z,1001.87
2018-02-18T02:40:32.390Z,1001.90
2018-02-18T02:41:32.363Z,1001.88
2018-02-18T02:42:32.336Z,1001.86
2018-02-18T02:43:46.942Z,1001.86
2018-02-18T02:44:32.280Z,1001.87
2018-02-18T02:45:32.262Z,1001.87
2018-02-18T02:46:32.227Z,1001.86
2018-02-18T02:47:32.204Z,1001.88
2018-02-18T02:48:32.179Z,1001.89
2018-02-18T02:49:32.149Z,1001.90
2018-02-18T02:50:32.124Z,1001.90
2018-02-18T02:51:32.098Z,1001.89
2018-02-18T02:52:32.073Z,1001.91
2018-02-18T02:53:32.053Z,1001.89
2018-02-18T02:54:32.018Z,1001.90
2018-02-18T02:55:31.994Z,1001.94
2018-02-18T02:56:31.968Z,1001.91
2018-02-18T02:57:31.945Z,1001.92
2018-02-18T02:58:31.912Z,1001.90
2018-02-18T02:59:31.897Z,1001.85
2018-02-18T03:00:31.880Z,1001.85
2018-02-18T03:01:31.835Z,1001.86
2018-02-18T03:02:31.808Z,1001.88
2018-02-18T03:03:31.781Z,1001.90
2018-02-18T03:04:31.761Z,1001.86
2018-02-18T03:05:31.729Z,1001.90
2018-02-18T03:06:31.704Z,1001.88
2018-02-18T03:07:31.681Z,1001.90
2018-02-18T03:08:31.654Z,1001.91
2018-02-18T03:09:31.626Z,1001.93
2018-02-18T03:10:31.602Z,1001.94
2018-02-18T03:11:31.577Z,1001.96
2018-02-18T03:12:31.552Z,1001.92
2018-02-18T03:13:31.522Z,1001.91
2018-02-18T03:14:31.492Z,1001.95
2018-02-18T03:15:31.469Z,1001.92
2018-02-18T03:16:31.442Z,1001.92
2018-02-18T03:17:31.415Z,1001.91
2018-02-18T03:18:31.388Z,1001.90
2018-02-18T03:19:31.365Z,1001.92
2018-02-18T03:20:31.336Z,1001.93
2018-02-18T03:21:31.312Z,1001.92
2018-02-18T03:22:31.285Z,1001.92
2018-02-18T03:23:31.257Z,1001.92
2018-02-18T03:24:31.232Z,1001.89
2018-02-18T03:25:31.208Z,1001.91
2018-02-18T03:26:31.178Z,1001.93
2018-02-18T03:27:31.151Z,1001.90
2018-02-18T03:28:31.130Z,1001.91
2018-02-18T03:29:31.100Z,1001.95
2018-02-18T03:30:31.082Z,1001.95
2018-02-18T03:31:31.050Z,1001.95
2018-02-18T03:32:31.020Z,1001.93
2018-02-18T03:33:30.997Z,1001.94
2018-02-18T03:34:30.968Z,1001.94
2018-02-18T03:35:30.943Z,1001.94
2018-02-18T03:36:30.919Z,1001.96
2018-02-18T03:37:30.931Z,1001.93
2018-02-18T03:38:30.864Z,1001.91
2018-02-18T03:39:30.835Z,1001.90
2018-02-18T03:40:30.812Z,1001.94
2018-02-18T03:41:30.788Z,1001.93
2018-02-18T03:42:30.760Z,1001.96
2018-02-18T03:43:30.735Z,1001.93
2018-02-18T03:44:30.708Z,1001.90
2018-02-18T03:45:30.679Z,1001.91
2018-02-18T03:46:30.660Z,1001.92
2018-02-18T03:47:30.627Z,1001.89
2018-02-18T03:48:30.602Z,1001.95
2018-02-18T03:49:30.579Z,1001.92
2018-02-18T03:50:30.549Z,1001.94
2018-02-18T03:51:30.524Z,1001.94
2018-02-18T03:52:30.499Z,1001.94
2018-02-18T03:53:30.469Z,1001.97
2018-02-18T03:54:30.442Z,1001.98
2018-02-18T03:55:30.421Z,1001.97
2018-02-18T03:56:30.393Z,1002.00
2018-02-18T03:57:30.376Z,1001.97
2018-02-18T03:58:30.342Z,1002.04
2018-02-18T03:59:30.316Z,1002.03
2018-02-18T04:00:30.288Z,1002.08
2018-02-18T04:01:30.257Z,1002.04
2018-02-18T04:02:30.238Z,1002.07
2018-02-18T04:03:30.213Z,1002.08
2018-02-18T04:04:30.182Z,1002.11
2018-02-18T04:05:30.157Z,1002.08
2018-02-18T04:06:30.129Z,1002.08
2018-02-18T04:07:30.101Z,1002.12
2018-02-18T04:08:30.077Z,1002.13
2018-02-18T04:09:30.051Z,1002.08
2018-02-18T04:10:30.024Z,1002.09
2018-02-18T04:11:30.050Z,1002.10
2018-02-18T04:12:29.972Z,1002.07
2018-02-18T04:13:29.943Z,1002.08
2018-02-18T04:14:29.918Z,1002.08
2018-02-18T04:15:29.896Z,1002.09
2018-02-18T04:16:29.870Z,1002.08
2018-02-18T04:17:29.841Z,1002.10
2018-02-18T04:18:29.812Z,1002.07
2018-02-18T04:19:29.787Z,1002.07
2018-02-18T04:20:29.759Z,1002.03
2018-02-18T04:21:29.736Z,1002.03
2018-02-18T04:22:29.706Z,1002.03
2018-02-18T04:23:29.681Z,1002.03
2018-02-18T04:24:29.660Z,1002.07
2018-02-18T04:25:29.630Z,1002.05
2018-02-18T04:26:29.600Z,1002.07
2018-02-18T04:27:29.577Z,1002.06
2018-02-18T04:28:29.550Z,1002.07
2018-02-18T04:29:29.523Z,1002.07
2018-02-18T04:30:29.496Z,1002.06
2018-02-18T04:31:29.469Z,1002.03
2018-02-18T04:32:29.444Z,1002.06
2018-02-18T04:33:29.417Z,1002.05
2018-02-18T04:34:29.392Z,1002.06
2018-02-18T04:35:29.384Z,1002.06
2018-02-18T04:36:29.338Z,1002.04
2018-02-18T04:37:29.311Z,1002.06
2018-02-18T04:38:29.292Z,1002.06
2018-02-18T04:39:29.257Z,1002.06
2018-02-18T04:40:29.250Z,1002.04
2018-02-18T04:41:29.211Z,1002.07
2018-02-18T04:42:29.178Z,1002.05
2018-02-18T04:43:29.158Z,1002.07
2018-02-18T04:44:29.131Z,1002.08
2018-02-18T04:45:29.145Z,1002.11
2018-02-18T04:46:29.077Z,1002.05
2018-02-18T04:47:29.047Z,1002.11
2018-02-18T04:48:29.022Z,1002.11
2018-02-18T04:49:28.997Z,1002.10
2018-02-18T04:50:28.970Z,1002.12
2018-02-18T04:51:28.945Z,1002.12
2018-02-18T04:52:28.917Z,1002.17
2018-02-18T04:53:28.891Z,1002.14
2018-02-18T04:54:28.868Z,1002.17
2018-02-18T04:55:28.839Z,1002.21
2018-02-18T04:56:28.812Z,1002.17
2018-02-18T04:57:28.791Z,1002.21
2018-02-18T04:58:28.760Z,1002.22
2018-02-18T04:59:28.741Z,1002.20
2018-02-18T05:00:28.706Z,1002.20
2018-02-18T05:01:28.683Z,1002.20
2018-02-18T05:02:28.654Z,1002.17
2018-02-18T05:03:28.632Z,1002.20
2018-02-18T05:04:28.602Z,1002.22
2018-02-18T05:05:28.573Z,1002.24
2018-02-18T05:06:28.553Z,1002.30
2018-02-18T05:07:28.521Z,1002.32
2018-02-18T05:08:28.506Z,1002.30
2018-02-18T05:09:28.475Z,1002.33
2018-02-18T05:10:28.445Z,1002.33
2018-02-18T05:11:28.476Z,1002.35
2018-02-18T05:12:28.393Z,1002.35
2018-02-18T05:13:28.363Z,1002.36
2018-02-18T05:14:28.340Z,1002.32
2018-02-18T05:15:28.317Z,1002.39
2018-02-18T05:16:28.284Z,1002.37
2018-02-18T05:17:28.264Z,1002.44
2018-02-18T05:18:28.236Z,1002.40
2018-02-18T05:19:28.255Z,1002.43
2018-02-18T05:20:28.182Z,1002.45
2018-02-18T05:21:28.156Z,1002.45
2018-02-18T05:22:28.128Z,1002.46
2018-02-18T05:23:28.101Z,1002.49
2018-02-18T05:24:28.076Z,1002.47
2018-02-18T05:25:28.047Z,1002.50
2018-02-18T05:26:28.026Z,1002.48
2018-02-18T05:27:27.996Z,1002.47
2018-02-18T05:28:27.969Z,1002.49
2018-02-18T05:29:27.945Z,1002.52
2018-02-18T05:30:27.916Z,1002.49
2018-02-18T05:31:27.890Z,1002.52
2018-02-18T05:32:27.863Z,1002.50
2018-02-18T05:33:27.836Z,1002.51
2018-02-18T05:34:27.809Z,1002.51
2018-02-18T05:35:27.786Z,1002.53
2018-02-18T05:36:27.762Z,1002.57
2018-02-18T05:37:27.730Z,1002.55
2018-02-18T05:38:27.707Z,1002.56
2018-02-18T05:39:27.678Z,1002.60
2018-02-18T05:40:27.653Z,1002.58
2018-02-18T05:41:27.626Z,1002.60
2018-02-18T05:42:27.601Z,1002.59
2018-02-18T05:43:27.575Z,1002.59
2018-02-18T05:44:42.472Z,1002.62
2018-02-18T05:45:27.529Z,1002.59
2018-02-18T05:46:27.493Z,1002.58
2018-02-18T05:47:27.472Z,1002.61
2018-02-18T05:48:27.447Z,1002.57
2018-02-18T05:49:27.417Z,1002.61
2018-02-18T05:50:27.396Z,1002.59
2018-02-18T05:51:27.364Z,1002.59
2018-02-18T05:52:27.336Z,1002.58
2018-02-18T05:53:27.350Z,1002.56
2018-02-18T05:54:27.288Z,1002.60
2018-02-18T05:55:27.266Z,1002.64
2018-02-18T05:56:27.234Z,1002.60
2018-02-18T05:57:27.204Z,1002.62
2018-02-18T05:58:27.187Z,1002.67
2018-02-18T05:59:27.165Z,1002.63
2018-02-18T06:00:27.136Z,1002.63
2018-02-18T06:01:27.100Z,1002.67
2018-02-18T06:02:27.077Z,1002.66
2018-02-18T06:03:27.055Z,1002.67
2018-02-18T06:04:27.026Z,1002.65
2018-02-18T06:05:26.996Z,1002.66
2018-02-18T06:06:26.970Z,1002.67
2018-02-18T06:07:26.944Z,1002.68
2018-02-18T06:08:26.916Z,1002.69
2018-02-18T06:09:26.891Z,1002.65
2018-02-18T06:10:26.861Z,1002.63
2018-02-18T06:11:26.842Z,1002.65
2018-02-18T06:12:26.812Z,1002.68
2018-02-18T06:13:26.784Z,1002.65
2018-02-18T06:14:26.762Z,1002.69
2018-02-18T06:15:26.731Z,1002.69
2018-02-18T06:16:26.706Z,1002.73
2018-02-18T06:17:26.678Z,1002.71
2018-02-18T06:18:26.652Z,1002.74
2018-02-18T06:19:26.630Z,1002.73
2018-02-18T06:20:26.601Z,1002.77
2018-02-18T06:21:26.573Z,1002.77
2018-02-18T06:22:26.548Z,1002.82
2018-02-18T06:23:26.521Z,1002.81
2018-02-18T06:24:26.498Z,1002.81
2018-02-18T06:25:26.470Z,1002.81
2018-02-18T06:26:26.452Z,1002.82
2018-02-18T06:27:26.447Z,1002.86
2018-02-18T06:28:26.393Z,1002.88
2018-02-18T06:29:26.369Z,1002.87
2018-02-18T06:30:26.338Z,1002.85
2018-02-18T06:31:26.311Z,1002.88
2018-02-18T06:32:26.289Z,1002.88
2018-02-18T06:33:26.255Z,1002.92
2018-02-18T06:34:26.230Z,1002.88
2018-02-18T06:35:26.203Z,1002.91
2018-02-18T06:36:26.178Z,1002.95
2018-02-18T06:37:26.164Z,1002.93
2018-02-18T06:38:26.126Z,1002.94
2018-02-18T06:39:26.100Z,1002.94
2018-02-18T06:40:26.090Z,1002.90
2018-02-18T06:41:26.049Z,1002.91
2018-02-18T06:42:26.026Z,1002.95
2018-02-18T06:43:26.005Z,1002.96
2018-02-18T06:44:25.968Z,1002.98
2018-02-18T06:45:25.943Z,1002.97
2018-02-18T06:46:25.923Z,1002.98
2018-02-18T06:47:25.889Z,1002.99
2018-02-18T06:48:25.864Z,1002.99
2018-02-18T06:49:25.841Z,1002.97
2018-02-18T06:50:25.808Z,1003.00
2018-02-18T06:51:25.785Z,1003.02
2018-02-18T06:52:25.755Z,1003.05
2018-02-18T06:53:25.733Z,1003.02
2018-02-18T06:54:25.804Z,1003.08
2018-02-18T06:55:25.681Z,1003.13
2018-02-18T06:56:25.650Z,1003.10
2018-02-18T06:57:25.625Z,1003.11
2018-02-18T06:58:25.618Z,1003.13
2018-02-18T06:59:25.572Z,1003.13
2018-02-18T07:00:25.548Z,1003.12
2018-02-18T07:01:25.547Z,1003.10
2018-02-18T07:02:25.492Z,1003.14
2018-02-18T07:03:25.477Z,1003.14
2018-02-18T07:04:25.441Z,1003.18
2018-02-18T07:05:25.417Z,1003.16
2018-02-18T07:06:25.390Z,1003.16
2018-02-18T07:07:25.363Z,1003.16
2018-02-18T07:08:25.337Z,1003.20
2018-02-18T07:09:25.313Z,1003.19
2018-02-18T07:10:25.284Z,1003.19
2018-02-18T07:11:25.260Z,1003.20
2018-02-18T07:12:25.238Z,1003.17
2018-02-18T07:13:25.209Z,1003.20
2018-02-18T07:14:25.370Z,1003.21
2018-02-18T07:15:25.150Z,1003.16
2018-02-18T07:16:25.129Z,1003.20
2018-02-18T07:17:25.107Z,1003.17
2018-02-18T07:18:25.077Z,1003.19
2018-02-18T07:19:25.050Z,1003.21
2018-02-18T07:20:25.024Z,1003.24
2018-02-18T07:21:24.996Z,1003.25
2018-02-18T07:22:24.965Z,1003.29
2018-02-18T07:23:25.062Z,1003.24
2018-02-18T07:24:24.919Z,1003.26
2018-02-18T07:25:24.888Z,1003.27
2018-02-18T07:26:24.867Z,1003.27
2018-02-18T07:27:24.834Z,1003.27
2018-02-18T07:28:24.809Z,1003.30
2018-02-18T07:29:24.856Z,1003.29
2018-02-18T07:30:24.760Z,1003.30
2018-02-18T07:31:24.735Z,1003.30
2018-02-18T07:32:24.704Z,1003.31
2018-02-18T07:33:24.679Z,1003.32
2018-02-18T07:34:24.651Z,1003.34
2018-02-18T07:35:24.627Z,1003.32
2018-02-18T07:36:24.654Z,1003.32
2018-02-18T07:37:24.646Z,1003.32
2018-02-18T07:38:24.545Z,1003.30
2018-02-18T07:39:24.519Z,1003.35
2018-02-18T07:40:24.496Z,1003.34
2018-02-18T07:41:24.541Z,1003.35
2018-02-18T07:42:24.446Z,1003.32
2018-02-18T07:43:24.421Z,1003.32
2018-02-18T07:44:24.412Z,1003.29
2018-02-18T07:45:24.367Z,1003.29
2018-02-18T07:46:24.347Z,1003.28
2018-02-18T07:47:24.308Z,1003.29
2018-02-18T07:48:24.296Z,1003.32
2018-02-18T07:49:24.270Z,1003.28
2018-02-18T07:50:24.233Z,1003.29
2018-02-18T07:51:24.213Z,1003.29
2018-02-18T07:52:24.177Z,1003.32
2018-02-18T07:53:24.151Z,1003.34
2018-02-18T07:54:24.137Z,1003.33
2018-02-18T07:55:24.098Z,1003.30
2018-02-18T07:56:24.075Z,1003.31
2018-02-18T07:57:24.052Z,1003.28
2018-02-18T07:58:24.024Z,1003.25
2018-02-18T07:59:23.994Z,1003.30
2018-02-18T08:00:23.974Z,1003.32
2018-02-18T08:01:23.944Z,1003.30
2018-02-18T08:02:23.919Z,1003.30
2018-02-18T08:03:23.904Z,1003.29
2018-02-18T08:04:23.869Z,1003.32
2018-02-18T08:05:23.839Z,1003.35
2018-02-18T08:06:23.813Z,1003.29
2018-02-18T08:07:23.788Z,1003.27
2018-02-18T08:08:23.759Z,1003.31
2018-02-18T08:09:23.737Z,1003.28
2018-02-18T08:10:23.751Z,1003.25
2018-02-18T08:11:23.680Z,1003.26
2018-02-18T08:12:23.654Z,1003.26
2018-02-18T08:13:23.631Z,1003.28
2018-02-18T08:14:23.609Z,1003.25
2018-02-18T08:16:55.652Z,1003.31
2018-02-18T08:17:55.613Z,1003.29
2018-02-18T08:19:50.050Z,1003.28
2018-02-18T08:20:49.990Z,1003.28
2018-02-18T08:22:43.358Z,1003.30
2018-02-18T08:23:43.363Z,1003.27
2018-02-18T08:25:47.603Z,1003.27
2018-02-18T08:26:47.550Z,1003.28
2018-02-18T08:28:43.401Z,1003.26
2018-02-18T08:29:43.357Z,1003.28
2018-02-18T08:31:36.717Z,1003.29
2018-02-18T08:32:36.667Z,1003.24
2018-02-18T08:34:32.535Z,1003.26
2018-02-18T08:35:32.478Z,1003.26
2018-02-18T08:37:25.866Z,1003.25
2018-02-18T08:38:25.834Z,1003.26
2018-02-18T08:40:19.169Z,1003.25
2018-02-18T08:41:19.112Z,1003.21
2018-02-18T08:43:12.495Z,1003.22
2018-02-18T08:44:12.436Z,1003.21
2018-02-18T08:46:05.804Z,1003.22
2018-02-18T08:47:05.742Z,1003.26
2018-02-18T08:48:59.136Z,1003.24
2018-02-18T08:49:59.076Z,1003.29
2018-02-18T08:51:52.435Z,1003.27
2018-02-18T08:52:52.399Z,1003.36
2018-02-18T08:54:48.243Z,1003.34
2018-02-18T08:55:48.186Z,1003.34
2018-02-18T08:57:41.568Z,1003.35
2018-02-18T08:58:41.515Z,1003.37
2018-02-18T09:00:35.225Z,1003.34
2018-02-18T09:01:35.186Z,1003.35
2018-02-18T09:03:28.585Z,1003.34
2018-02-18T09:04:28.513Z,1003.35
2018-02-18T09:06:24.360Z,1003.29
2018-02-18T09:07:24.322Z,1003.29
2018-02-18T09:09:17.689Z,1003.31
2018-02-18T09:10:17.629Z,1003.33
2018-02-18T09:12:10.988Z,1003.32
2018-02-18T09:13:10.969Z,1003.32
2018-02-18T09:15:04.350Z,1003.31
2018-02-18T09:16:04.287Z,1003.35
2018-02-18T09:17:57.646Z,1003.35
2018-02-18T09:18:57.598Z,1003.35
2018-02-18T09:20:50.985Z,1003.32
2018-02-18T09:21:50.961Z,1003.30
2018-02-18T09:23:44.277Z,1003.32
2018-02-18T09:24:44.223Z,1003.34
2018-02-18T09:26:37.606Z,1003.36
2018-02-18T09:27:37.544Z,1003.38
2018-02-18T09:29:30.902Z,1003.42
2018-02-18T09:30:30.849Z,1003.41
2018-02-18T09:32:24.230Z,1003.42
2018-02-18T09:33:24.164Z,1003.43
2018-02-18T09:35:17.533Z,1003.44
2018-02-18T09:36:17.479Z,1003.38
2018-02-18T09:38:10.846Z,1003.43
2018-02-18T09:39:10.796Z,1003.41
2018-02-18T09:41:04.162Z,1003.45
2018-02-18T09:42:04.149Z,1003.43
2018-02-18T09:43:57.473Z,1003.45
2018-02-18T09:44:57.421Z,1003.37
2018-02-18T09:46:53.286Z,1003.44
2018-02-18T09:47:53.228Z,1003.48
2018-02-18T09:49:46.594Z,1003.49
2018-02-18T09:50:46.555Z,1003.46
2018-02-18T09:52:39.927Z,1003.48
2018-02-18T09:53:39.853Z,1003.48
2018-02-18T09:55:33.214Z,1003.47
2018-02-18T09:56:33.180Z,1003.51
2018-02-18T09:58:26.539Z,1003.55
2018-02-18T09:59:26.512Z,1003.59
2018-02-18T10:01:20.721Z,1003.61
2018-02-18T10:02:20.662Z,1003.63
2018-02-18T10:04:16.533Z,1003.65
2018-02-18T10:05:16.468Z,1003.68
2018-02-18T10:07:09.827Z,1003.68
2018-02-18T10:08:09.781Z,1003.69
2018-02-18T10:10:05.641Z,1003.70
2018-02-18T10:11:05.600Z,1003.70
2018-02-18T10:12:59.005Z,1003.71
2018-02-18T10:13:58.925Z,1003.73
2018-02-18T10:15:55.656Z,1003.76
2018-02-18T10:16:55.609Z,1003.75
2018-02-18T10:18:51.483Z,1003.76
2018-02-18T10:19:51.429Z,1003.77
2018-02-18T10:21:44.307Z,1003.79
2018-02-18T10:22:44.253Z,1003.79
2018-02-18T10:24:40.151Z,1003.79
2018-02-18T10:25:40.062Z,1003.82
2018-02-18T10:27:33.446Z,1003.79
2018-02-18T10:28:33.380Z,1003.82
2018-02-18T10:30:26.803Z,1003.81
2018-02-18T10:31:26.684Z,1003.84
2018-02-18T10:33:20.053Z,1003.83
2018-02-18T10:34:20.000Z,1003.78
2018-02-18T10:36:13.396Z,1003.77
2018-02-18T10:37:13.290Z,1003.78
2018-02-18T10:39:06.675Z,1003.77
2018-02-18T10:40:06.610Z,1003.75
2018-02-18T10:42:02.486Z,1003.75
2018-02-18T10:43:02.439Z,1003.73
2018-02-18T10:44:58.289Z,1003.73
2018-02-18T10:45:58.249Z,1003.75
2018-02-18T10:47:54.135Z,1003.71
2018-02-18T10:48:54.094Z,1003.68
2018-02-18T10:50:49.988Z,1003.70
2018-02-18T10:51:49.915Z,1003.69
2018-02-18T10:53:43.257Z,1003.68
2018-02-18T10:54:43.229Z,1003.70
2018-02-18T10:56:36.564Z,1003.69
2018-02-18T10:57:36.527Z,1003.70
2018-02-18T10:59:30.122Z,1003.70
2018-02-18T11:00:30.059Z,1003.68
2018-02-18T11:02:24.311Z,1003.70
2018-02-18T11:03:24.245Z,1003.66
2018-02-18T11:05:17.588Z,1003.70
2018-02-18T11:06:17.545Z,1003.72
2018-02-18T11:08:10.410Z,1003.68
2018-02-18T11:09:10.367Z,1003.67
2018-02-18T11:11:03.730Z,1003.63
2018-02-18T11:12:03.677Z,1003.65
2018-02-18T11:13:59.524Z,1003.60
2018-02-18T11:14:59.481Z,1003.61
2018-02-18T11:16:52.344Z,1003.58
2018-02-18T11:17:52.301Z,1003.59
2018-02-18T11:19:48.196Z,1003.58
2018-02-18T11:20:48.144Z,1003.60
2018-02-18T11:22:41.508Z,1003.57
2018-02-18T11:23:41.457Z,1003.56
2018-02-18T11:25:34.828Z,1003.59
2018-02-18T11:26:34.773Z,1003.56
2018-02-18T11:28:28.158Z,1003.58
2018-02-18T11:29:28.087Z,1003.55
2018-02-18T11:31:21.467Z,1003.54
2018-02-18T11:32:21.416Z,1003.53
2018-02-18T11:34:17.285Z,1003.52
2018-02-18T11:35:17.224Z,1003.50
2018-02-18T11:37:10.610Z,1003.50
2018-02-18T11:38:10.554Z,1003.52
2018-02-18T11:40:03.917Z,1003.54
2018-02-18T11:41:03.842Z,1003.53
2018-02-18T11:42:57.227Z,1003.53
2018-02-18T11:43:57.168Z,1003.55
2018-02-18T11:45:50.523Z,1003.55
2018-02-18T11:46:50.478Z,1003.57
2018-02-18T11:48:43.856Z,1003.61
2018-02-18T11:49:43.811Z,1003.60
2018-02-18T11:51:37.204Z,1003.61
2018-02-18T11:52:37.142Z,1003.62
2018-02-18T11:54:30.494Z,1003.62
2018-02-18T11:55:30.448Z,1003.62
2018-02-18T11:57:23.829Z,1003.65
2018-02-18T11:58:23.768Z,1003.64
2018-02-18T12:00:17.120Z,1003.58
2018-02-18T12:01:17.078Z,1003.63
2018-02-18T12:03:10.453Z,1003.57
2018-02-18T12:04:10.430Z,1003.54
2018-02-18T12:06:03.747Z,1003.51
2018-02-18T12:07:03.702Z,1003.45
2018-02-18T12:08:57.064Z,1003.46
2018-02-18T12:09:57.018Z,1003.48
2018-02-18T12:11:50.370Z,1003.45
2018-02-18T12:12:50.322Z,1003.41
2018-02-18T12:14:43.699Z,1003.39
2018-02-18T12:15:43.635Z,1003.36
2018-02-18T12:17:37.015Z,1003.33
2018-02-18T12:18:36.946Z,1003.32
2018-02-18T12:20:32.798Z,1003.31
2018-02-18T12:21:32.753Z,1003.28
2018-02-18T12:22:32.729Z,1003.30
2018-02-18T12:23:32.704Z,1003.27
2018-02-18T12:24:32.673Z,1003.26
2018-02-18T12:25:32.688Z,1003.23
2018-02-18T12:26:32.623Z,1003.24
2018-02-18T12:27:32.606Z,1003.28
2018-02-18T12:28:32.571Z,1003.25
2018-02-18T12:29:32.547Z,1003.28
2018-02-18T12:30:32.527Z,1003.26
2018-02-18T12:31:32.498Z,1003.23
2018-02-18T12:32:32.517Z,1003.20
2018-02-18T12:33:32.448Z,1003.20
2018-02-18T12:34:32.417Z,1003.20
2018-02-18T12:35:32.388Z,1003.24
2018-02-18T12:36:32.368Z,1003.21
2018-02-18T12:37:32.334Z,1003.21
2018-02-18T12:38:32.311Z,1003.25
2018-02-18T12:39:32.294Z,1003.26
2018-02-18T12:40:32.261Z,1003.25
2018-02-18T12:41:32.237Z,1003.24
2018-02-18T12:42:32.210Z,1003.21
2018-02-18T12:43:32.180Z,1003.22
2018-02-18T12:44:32.156Z,1003.24
2018-02-18T12:45:32.136Z,1003.22
2018-02-18T12:46:32.109Z,1003.19
2018-02-18T12:47:32.082Z,1003.22
2018-02-18T12:48:32.051Z,1003.18
2018-02-18T12:49:32.026Z,1003.17
2018-02-18T12:50:32.009Z,1003.18
2018-02-18T12:51:31.975Z,1003.11
2018-02-18T12:52:31.947Z,1003.12
2018-02-18T12:53:31.924Z,1003.15
2018-02-18T12:54:31.893Z,1003.11
2018-02-18T12:55:31.874Z,1003.12
2018-02-18T12:56:31.863Z,1003.12
2018-02-18T12:57:31.827Z,1003.12
2018-02-18T12:58:31.793Z,1003.11
2018-02-18T12:59:31.770Z,1003.09
2018-02-18T13:00:31.745Z,1003.09
2018-02-18T13:01:31.712Z,1003.06
2018-02-18T13:02:31.693Z,1003.09
2018-02-18T13:03:31.664Z,1003.08
2018-02-18T13:04:31.635Z,1003.08
2018-02-18T13:05:31.608Z,1003.07
2018-02-18T13:06:31.627Z,1003.06
2018-02-18T13:07:31.560Z,1003.07
2018-02-18T13:08:31.533Z,1003.10
2018-02-18T13:09:31.506Z,1003.07
2018-02-18T13:10:31.478Z,1003.08
2018-02-18T13:11:31.509Z,1003.07
2018-02-18T13:12:31.433Z,1003.05
2018-02-18T13:13:31.416Z,1003.05
2018-02-18T13:14:31.375Z,1003.05
2018-02-18T13:15:31.354Z,1003.05
2018-02-18T13:16:31.327Z,1003.09
2018-02-18T13:17:31.310Z,1003.07
2018-02-18T13:18:31.271Z,1003.08
2018-02-18T13:19:31.252Z,1003.06
2018-02-18T13:20:31.229Z,1003.04
2018-02-18T13:21:31.224Z,1003.02
2018-02-18T13:22:31.173Z,1003.03
2018-02-18T13:23:31.145Z,1003.01
2018-02-18T13:24:31.131Z,1003.03
2018-02-18T13:25:31.094Z,1003.00
2018-02-18T13:26:31.071Z,1002.98
2018-02-18T13:27:31.042Z,1002.99
2018-02-18T13:28:31.021Z,1002.97
2018-02-18T13:29:30.990Z,1002.99
2018-02-18T13:30:30.965Z,1003.02
2018-02-18T13:31:30.940Z,1003.03
2018-02-18T13:32:31.005Z,1003.01
2018-02-18T13:33:30.886Z,1003.02
2018-02-18T13:34:30.861Z,1003.04
2018-02-18T13:35:30.836Z,1003.02
2018-02-18T13:36:30.809Z,1003.02
2018-02-18T13:37:30.788Z,1003.01
2018-02-18T13:38:30.773Z,1002.98
2018-02-18T13:39:30.746Z,1002.97
2018-02-18T13:40:30.727Z,1002.95
2018-02-18T13:41:30.736Z,1002.92
2018-02-18T13:42:30.653Z,1002.89
2018-02-18T13:43:30.625Z,1002.91
2018-02-18T13:44:30.603Z,1002.89
2018-02-18T13:45:30.576Z,1002.87
2018-02-18T13:46:30.557Z,1002.91
2018-02-18T13:47:30.524Z,1002.85
2018-02-18T13:48:30.503Z,1002.88
2018-02-18T13:49:30.476Z,1002.87
2018-02-18T13:50:30.447Z,1002.82
2018-02-18T13:51:30.422Z,1002.77
2018-02-18T13:52:30.395Z,1002.78
2018-02-18T13:53:30.370Z,1002.81
2018-02-18T13:54:30.343Z,1002.82